createdAt,value
2023-03-02T00:01:08.569Z,43.28
2023-03-02T00:03:43.262Z,44.72
2023-03-02T00:06:15.457Z,51.70
2023-03-02T00:08:48.415Z,49.70
2023-03-02T00:11:19.983Z,53.63
2023-03-02T00:13:51.980Z,55.63
2023-03-02T00:16:26.327Z,52.30
2023-03-02T00:18:58.918Z,48.80
2023-03-02T00:21:31.973Z,53.50
2023-03-02T00:24:04.095Z,47.83
2023-03-02T00:26:37.418Z,59.33
2023-03-02T00:29:09.457Z,51.90
2023-03-02T00:31:43.851Z,50.63
2023-03-02T00:34:17.136Z,50.20
2023-03-02T00:36:49.771Z,48.42
2023-03-02T00:39:21.992Z,48.28
2023-03-02T00:41:53.959Z,48.30
2023-03-02T00:44:26.158Z,46.30
2023-03-02T00:47:00.724Z,45.28
2023-03-02T00:49:33.194Z,45.50
2023-03-02T00:52:05.133Z,50.67
2023-03-02T00:55:15.931Z,45.15
2023-03-02T00:58:12.453Z,46.63
2023-03-02T01:00:53.433Z,47.85
2023-03-02T01:03:28.353Z,53.58
2023-03-02T01:06:01.061Z,43.35
2023-03-02T01:08:33.173Z,42.20
2023-03-02T01:11:05.516Z,44.05
2023-03-02T01:13:37.338Z,48.22
2023-03-02T01:16:10.431Z,44.88
2023-03-02T01:18:45.102Z,48.15
2023-03-02T01:21:19.334Z,47.15
2023-03-02T01:23:51.986Z,46.15
2023-03-02T01:26:24.214Z,48.15
2023-03-02T01:28:56.609Z,43.03
2023-03-02T01:31:30.168Z,46.95
2023-03-02T01:34:04.821Z,41.33
2023-03-02T01:36:37.364Z,43.50
2023-03-02T01:39:09.278Z,45.20
2023-03-02T01:41:41.671Z,43.30
2023-03-02T01:44:42.523Z,47.83
2023-03-02T01:47:19.419Z,55.28
2023-03-02T01:49:59.838Z,43.53
2023-03-02T01:52:35.092Z,49.92
2023-03-02T01:55:12.601Z,48.10
2023-03-02T01:57:49.864Z,45.28
2023-03-02T02:00:25.854Z,46.30
2023-03-02T02:03:09.699Z,46.25
2023-03-02T02:05:47.641Z,49.72
2023-03-02T02:08:20.119Z,45.72
2023-03-02T02:10:52.338Z,45.25
2023-03-02T02:13:24.742Z,50.30
2023-03-02T02:15:56.960Z,48.35
2023-03-02T02:18:29.915Z,46.03
2023-03-02T02:21:05.298Z,49.53
2023-03-02T02:23:43.524Z,47.33
2023-03-02T02:26:35.528Z,48.60
2023-03-02T02:29:14.837Z,44.47
2023-03-02T02:31:54.569Z,48.60
2023-03-02T02:34:35.835Z,44.53
2023-03-02T02:37:22.967Z,46.00
2023-03-02T02:40:58.042Z,47.50
2023-03-02T02:44:46.337Z,43.90
2023-03-02T02:47:24.214Z,49.13
2023-03-02T02:49:58.323Z,45.08
2023-03-02T02:52:32.194Z,46.78
2023-03-02T02:55:04.345Z,47.85
2023-03-02T02:57:36.122Z,45.83
2023-03-02T03:00:12.490Z,46.17
2023-03-02T03:02:48.554Z,49.97
2023-03-02T03:05:20.951Z,45.22
2023-03-02T03:07:53.452Z,49.47
2023-03-02T03:10:35.257Z,47.17
2023-03-02T03:13:06.854Z,52.40
2023-03-02T03:15:39.484Z,48.88
2023-03-02T03:18:13.768Z,48.42
2023-03-02T03:20:49.831Z,58.03
2023-03-02T03:23:22.124Z,50.35
2023-03-02T03:25:53.714Z,50.05
2023-03-02T03:28:24.885Z,51.47
2023-03-02T03:30:56.662Z,54.03
2023-03-02T03:33:33.464Z,52.95
2023-03-02T03:36:05.109Z,48.88
2023-03-02T03:38:36.786Z,54.38
2023-03-02T03:41:08.982Z,65.55
2023-03-02T03:43:41.814Z,49.08
2023-03-02T03:46:14.149Z,56.17
2023-03-02T03:48:48.068Z,52.83
2023-03-02T03:51:22.672Z,58.88
2023-03-02T03:54:00.473Z,56.05
2023-03-02T03:56:34.212Z,54.60
2023-03-02T03:59:10.820Z,59.67
2023-03-02T04:01:46.765Z,56.15
2023-03-02T04:04:23.914Z,51.35
2023-03-02T04:06:57.540Z,55.55
2023-03-02T04:09:32.298Z,55.63
2023-03-02T04:12:03.938Z,59.95
2023-03-02T04:14:35.519Z,57.85
2023-03-02T04:17:08.030Z,61.20
2023-03-02T04:19:45.912Z,65.47
2023-03-02T04:22:20.285Z,63.30
2023-03-02T04:24:52.488Z,57.72
2023-03-02T04:27:25.445Z,63.13
2023-03-02T04:29:57.368Z,62.50
2023-03-02T04:32:29.297Z,58.10
2023-03-02T04:35:02.832Z,63.33
2023-03-02T04:37:34.250Z,57.00
2023-03-02T04:40:09.163Z,59.72
2023-03-02T04:42:40.804Z,56.50
2023-03-02T04:45:15.721Z,53.92
2023-03-02T04:47:47.184Z,60.90
2023-03-02T04:50:20.914Z,55.15
2023-03-02T04:52:53.959Z,62.03
2023-03-02T04:55:28.876Z,64.95
2023-03-02T04:58:00.875Z,64.55
2023-03-02T05:00:35.519Z,59.17
2023-03-02T05:03:08.020Z,64.38
2023-03-02T05:05:42.575Z,63.97
2023-03-02T05:08:15.116Z,65.43
2023-03-02T05:10:46.676Z,65.03
2023-03-02T05:13:18.755Z,65.90
2023-03-02T05:15:51.930Z,69.50
2023-03-02T05:18:24.415Z,71.18
2023-03-02T05:20:58.848Z,70.03
2023-03-02T05:23:31.854Z,74.65
2023-03-02T05:26:03.356Z,81.25
2023-03-02T05:28:35.438Z,80.70
2023-03-02T05:31:07.452Z,84.70
2023-03-02T05:33:38.881Z,84.85
2023-03-02T05:36:12.550Z,79.43
2023-03-02T05:38:44.309Z,86.47
2023-03-02T05:41:15.253Z,95.43
2023-03-02T05:43:46.685Z,91.53
2023-03-02T05:46:18.169Z,90.43
2023-03-02T05:48:50.053Z,99.22
2023-03-02T05:51:23.639Z,94.28
2023-03-02T05:53:54.996Z,94.53
2023-03-02T05:56:25.923Z,98.18
2023-03-02T05:58:57.271Z,104.43
2023-03-02T06:01:28.120Z,112.47
2023-03-02T06:03:59.919Z,109.28
2023-03-02T06:06:34.196Z,114.57
2023-03-02T06:09:05.917Z,109.65
2023-03-02T06:11:36.793Z,121.32
2023-03-02T06:14:08.356Z,123.03
2023-03-02T06:16:39.295Z,116.63
2023-03-02T06:19:10.919Z,113.18
2023-03-02T06:21:44.413Z,111.55
2023-03-02T06:24:15.886Z,122.35
2023-03-02T06:26:47.144Z,113.50
2023-03-02T06:29:18.423Z,113.25
2023-03-02T06:31:49.766Z,115.40
2023-03-02T06:34:21.395Z,120.90
2023-03-02T06:36:55.315Z,117.05
2023-03-02T06:39:27.063Z,115.97
2023-03-02T06:41:59.492Z,124.05
2023-03-02T06:44:31.102Z,131.30
2023-03-02T06:47:02.473Z,129.18
2023-03-02T06:49:34.155Z,127.20
2023-03-02T06:52:08.231Z,129.23
2023-03-02T06:54:40.117Z,120.18
2023-03-02T06:57:11.581Z,129.05
2023-03-02T06:59:43.119Z,136.43
2023-03-02T07:02:14.952Z,139.15
2023-03-02T07:04:46.618Z,144.25
2023-03-02T07:07:20.232Z,129.07
2023-03-02T07:09:51.580Z,124.65
2023-03-02T07:12:22.447Z,114.82
2023-03-02T07:14:53.870Z,111.10
2023-03-02T07:17:24.649Z,116.55
2023-03-02T07:19:55.903Z,126.43
2023-03-02T07:22:29.576Z,115.22
2023-03-02T07:25:00.912Z,102.32
2023-03-02T07:27:31.937Z,119.25
2023-03-02T07:30:03.429Z,107.47
2023-03-02T07:32:34.641Z,105.93
2023-03-02T07:35:06.197Z,113.63
2023-03-02T07:37:39.789Z,92.22
2023-03-02T07:40:13.571Z,94.32
2023-03-02T07:42:44.459Z,98.47
2023-03-02T07:45:16.952Z,98.05
2023-03-02T07:47:47.977Z,104.15
2023-03-02T07:50:19.955Z,98.13
2023-03-02T07:52:53.597Z,97.90
2023-03-02T07:55:24.916Z,102.20
2023-03-02T07:57:55.962Z,95.57
2023-03-02T08:00:27.887Z,93.72
2023-03-02T08:02:58.938Z,85.85
2023-03-02T08:05:30.528Z,86.75
2023-03-02T08:08:04.179Z,88.60
2023-03-02T08:10:37.216Z,100.65
2023-03-02T08:13:10.320Z,99.63
2023-03-02T08:15:41.731Z,104.13
2023-03-02T08:18:15.091Z,87.30
2023-03-02T08:20:46.332Z,90.55
2023-03-02T08:23:19.869Z,98.43
2023-03-02T08:25:51.376Z,100.72
2023-03-02T08:28:23.061Z,95.13
2023-03-02T08:31:00.756Z,96.53
2023-03-02T08:33:33.186Z,101.35
2023-03-02T08:36:07.718Z,98.55
2023-03-02T08:38:41.794Z,98.10
2023-03-02T08:41:15.524Z,92.78
2023-03-02T08:43:46.869Z,87.88
2023-03-02T08:46:20.154Z,91.75
2023-03-02T08:48:52.764Z,97.55
2023-03-02T08:51:27.375Z,101.97
2023-03-02T08:54:00.878Z,88.03
2023-03-02T08:56:34.206Z,92.30
2023-03-02T08:59:08.053Z,97.25
2023-03-02T09:01:40.780Z,91.32
2023-03-02T09:04:13.586Z,94.20
2023-03-02T09:06:47.701Z,95.50
2023-03-02T09:09:21.468Z,101.10
2023-03-02T09:11:52.997Z,96.00
2023-03-02T09:14:27.403Z,99.93
2023-03-02T09:16:59.034Z,97.45
2023-03-02T09:19:30.333Z,94.55
2023-03-02T09:22:01.785Z,99.57
2023-03-02T09:24:35.974Z,93.20
2023-03-02T09:27:08.250Z,88.38
2023-03-02T09:29:39.526Z,85.72
2023-03-02T09:32:12.142Z,88.88
2023-03-02T09:34:43.544Z,77.28
2023-03-02T09:37:16.369Z,84.13
2023-03-02T09:39:50.242Z,78.22
2023-03-02T09:42:45.730Z,74.03
2023-03-02T09:45:28.444Z,75.68
2023-03-02T09:48:14.112Z,72.30
2023-03-02T11:50:55.593Z,43.88
2023-03-02T11:53:30.250Z,38.60
2023-03-02T11:56:00.893Z,43.70
2023-03-02T11:58:33.012Z,44.30
2023-03-02T12:01:06.330Z,41.50
2023-03-02T12:03:41.831Z,39.17
2023-03-02T12:06:30.078Z,42.30
2023-03-02T12:10:30.670Z,48.17
2023-03-02T12:13:05.941Z,43.65
2023-03-02T12:15:41.455Z,40.95
2023-03-02T12:18:27.998Z,39.45
2023-03-02T13:19:40.062Z,38.78
2023-03-02T13:22:15.060Z,35.65
2023-03-02T13:24:54.027Z,37.47
2023-03-02T13:27:26.560Z,36.03
2023-03-02T13:29:58.509Z,38.30
2023-03-02T13:32:31.984Z,37.25
2023-03-02T13:37:46.992Z,37.55
2023-03-02T13:40:40.790Z,38.42
2023-03-02T13:43:36.900Z,46.28
2023-03-02T13:46:27.907Z,37.60
2023-03-02T21:31:59.654Z,142.95
2023-03-02T21:34:32.917Z,113.82
2023-03-02T21:37:04.785Z,113.93
2023-03-02T21:39:37.542Z,93.20
2023-03-02T21:42:09.732Z,98.68
2023-03-02T21:44:42.057Z,105.10
2023-03-02T21:47:16.798Z,126.05
2023-03-02T21:49:48.806Z,118.65
2023-03-02T21:52:20.526Z,121.18
2023-03-02T21:54:52.863Z,127.15
2023-03-02T21:57:24.848Z,142.60
2023-03-02T21:59:57.788Z,138.18
2023-03-02T22:02:32.368Z,141.00
2023-03-02T22:05:04.856Z,126.95
2023-03-02T22:07:36.884Z,117.63
2023-03-02T22:10:11.219Z,109.50
2023-03-02T22:12:45.132Z,113.93
2023-03-02T22:15:21.550Z,97.53
2023-03-02T22:17:57.090Z,98.82
2023-03-02T22:20:29.942Z,94.63
2023-03-02T22:23:02.794Z,95.07
2023-03-02T22:25:35.106Z,85.88
2023-03-02T22:28:16.562Z,81.63
2023-03-02T22:30:48.811Z,79.20
2023-03-02T22:33:26.123Z,80.95
2023-03-02T22:36:05.164Z,78.13
2023-03-02T22:38:37.090Z,82.53
2023-03-02T22:41:13.533Z,81.05
2023-03-02T22:43:46.107Z,90.45
2023-03-02T22:46:22.065Z,76.38
2023-03-02T22:48:57.593Z,81.43
2023-03-02T22:51:33.209Z,81.15
2023-03-02T22:54:05.660Z,82.15
2023-03-02T22:59:51.725Z,95.60
2023-03-02T23:02:26.365Z,97.60
2023-03-02T23:05:03.533Z,85.93
2023-03-02T23:07:35.462Z,94.78
2023-03-02T23:10:07.630Z,88.18
2023-03-02T23:12:39.579Z,88.72
2023-03-02T23:15:20.269Z,85.88
2023-03-02T23:17:52.812Z,84.88
2023-03-02T23:20:30.037Z,78.40
2023-03-02T23:23:01.737Z,77.82
2023-03-02T23:25:45.370Z,83.38
2023-03-02T23:28:18.104Z,83.10
2023-03-02T23:30:50.517Z,85.57
2023-03-02T23:33:22.833Z,81.28
2023-03-02T23:35:57.887Z,71.85
2023-03-02T23:38:30.627Z,69.78
2023-03-02T23:41:02.703Z,75.07
2023-03-02T23:43:49.346Z,71.10
2023-03-02T23:46:24.645Z,69.30
2023-03-02T23:48:56.536Z,68.70
2023-03-02T23:51:31.604Z,65.97
2023-03-02T23:54:04.758Z,67.07
2023-03-02T23:56:37.134Z,63.60
2023-03-02T23:59:09.375Z,68.07
